createdAt,value
2018-06-02T00:01:18.035Z,11.85
2018-06-02T00:03:53.272Z,19.85
2018-06-02T00:06:27.484Z,13.95
2018-06-02T00:09:01.745Z,15.00
2018-06-02T00:11:35.942Z,12.27
2018-06-02T00:14:10.193Z,13.48
2018-06-02T00:16:45.377Z,15.85
2018-06-02T00:19:19.617Z,12.43
2018-06-02T00:21:53.817Z,13.13
2018-06-02T00:24:28.066Z,16.65
2018-06-02T00:27:02.272Z,13.20
2018-06-02T00:29:38.272Z,13.18
2018-06-02T00:32:13.442Z,13.02
2018-06-02T00:34:47.705Z,15.13
2018-06-02T00:37:21.924Z,15.90
2018-06-02T00:39:56.181Z,19.58
2018-06-02T00:42:30.414Z,13.73
2018-06-02T00:45:06.413Z,14.60
2018-06-02T00:47:40.637Z,15.93
2018-06-02T00:50:14.904Z,17.05
2018-06-02T00:52:49.884Z,12.93
2018-06-02T00:55:24.143Z,13.77
2018-06-02T00:57:59.120Z,17.95
2018-06-02T01:00:34.362Z,15.85
2018-06-02T01:03:09.555Z,15.65
2018-06-02T01:05:45.561Z,17.60
2018-06-02T01:08:19.783Z,16.62
2018-06-02T01:10:54.036Z,15.32
2018-06-02T01:13:29.019Z,16.10
2018-06-02T01:16:06.618Z,15.95
2018-06-02T01:18:41.836Z,16.00
2018-06-02T01:21:16.092Z,15.25
2018-06-02T01:23:50.321Z,15.57
2018-06-02T01:26:24.577Z,18.33
2018-06-02T01:28:58.812Z,17.83
2018-06-02T01:31:33.061Z,14.30
2018-06-02T01:34:07.278Z,17.15
2018-06-02T01:36:41.529Z,18.55
2018-06-02T01:39:15.748Z,16.27
2018-06-02T01:41:50.012Z,17.65
2018-06-02T01:44:25.254Z,17.27
2018-06-02T01:46:58.947Z,19.67
2018-06-02T01:49:33.187Z,17.25
2018-06-02T01:52:08.212Z,14.63
2018-06-02T01:54:44.178Z,21.70
2018-06-02T01:57:19.195Z,18.65
2018-06-02T01:59:53.413Z,16.80
2018-06-02T02:02:27.091Z,18.17
2018-06-02T02:05:01.309Z,15.00
2018-06-02T02:07:42.121Z,17.75
2018-06-02T02:10:17.301Z,17.42
2018-06-02T02:12:51.951Z,16.33
2018-06-02T02:15:25.590Z,19.60
2018-06-02T02:17:59.556Z,19.48
2018-06-02T02:20:33.764Z,20.35
2018-06-02T02:23:08.048Z,21.10
2018-06-02T02:25:42.270Z,17.62
2018-06-02T02:28:16.529Z,15.13
2018-06-02T02:30:51.657Z,16.45
2018-06-02T02:33:25.906Z,19.20
2018-06-02T02:36:00.106Z,22.15
2018-06-02T02:38:36.102Z,23.65
2018-06-02T02:41:10.316Z,25.67
2018-06-02T02:43:44.593Z,24.45
2018-06-02T02:46:18.806Z,19.55
2018-06-02T02:48:53.059Z,22.23
2018-06-02T02:51:28.268Z,21.55
2018-06-02T02:54:02.511Z,21.70
2018-06-02T02:56:37.467Z,26.15
2018-06-02T02:59:11.721Z,22.33
2018-06-02T03:01:46.837Z,22.17
2018-06-02T03:04:20.512Z,22.27
2018-06-02T03:06:54.728Z,22.87
2018-06-02T03:09:29.167Z,22.83
2018-06-02T03:12:02.809Z,23.25
2018-06-02T03:14:36.490Z,24.60
2018-06-02T03:17:10.136Z,24.87
2018-06-02T03:19:45.570Z,26.67
2018-06-02T03:22:19.779Z,26.10
2018-06-02T03:24:53.464Z,31.00
2018-06-02T03:27:28.665Z,32.35
2018-06-02T03:30:03.896Z,25.88
2018-06-02T03:32:37.560Z,25.90
2018-06-02T03:35:12.774Z,25.90
2018-06-02T03:37:46.973Z,29.77
2018-06-02T03:40:21.993Z,24.95
2018-06-02T03:42:57.161Z,25.80
2018-06-02T03:45:32.364Z,25.27
2018-06-02T03:48:07.353Z,23.85
2018-06-02T03:50:41.615Z,21.05
2018-06-02T03:53:16.793Z,25.40
2018-06-02T03:55:59.714Z,20.80
2018-06-02T03:58:34.040Z,20.52
2018-06-02T04:01:08.298Z,22.13
2018-06-02T04:03:43.359Z,19.30
2018-06-02T04:06:17.639Z,18.48
2018-06-02T04:08:53.578Z,17.60
2018-06-02T04:11:27.857Z,17.02
2018-06-02T04:14:02.093Z,17.65
2018-06-02T04:16:37.313Z,18.83
2018-06-02T04:19:11.532Z,13.50
2018-06-02T04:21:46.757Z,16.27
2018-06-02T04:24:20.985Z,16.92
2018-06-02T04:26:56.195Z,15.55
2018-06-02T04:29:30.409Z,11.73
2018-06-02T04:32:04.676Z,18.87
2018-06-02T04:34:38.891Z,14.50
2018-06-02T04:37:14.137Z,16.08
2018-06-02T04:39:49.370Z,14.73
2018-06-02T04:42:23.619Z,13.80
2018-06-02T04:44:58.586Z,12.90
2018-06-02T04:47:32.842Z,14.57
2018-06-02T04:50:08.032Z,12.82
2018-06-02T04:52:42.271Z,12.00
2018-06-02T04:55:16.472Z,9.60
2018-06-02T04:57:51.692Z,11.90
2018-06-02T05:00:25.895Z,10.65
2018-06-02T05:03:00.139Z,11.65
2018-06-02T05:05:35.112Z,11.88
2018-06-02T05:08:09.827Z,9.50
2018-06-02T05:10:43.732Z,9.03
2018-06-02T05:13:19.412Z,10.27
2018-06-02T05:15:53.327Z,10.27
2018-06-02T05:18:28.260Z,8.60
2018-06-02T05:21:02.194Z,11.70
2018-06-02T05:23:37.130Z,10.67
2018-06-02T05:26:11.994Z,8.80
2018-06-02T05:28:45.924Z,7.60
2018-06-02T05:31:20.783Z,9.57
2018-06-02T05:33:55.750Z,9.23
2018-06-02T05:36:29.640Z,7.53
2018-06-02T05:39:03.255Z,9.47
2018-06-02T05:41:37.162Z,5.87
2018-06-02T05:44:12.100Z,15.77
2018-06-02T05:46:46.770Z,6.63
2018-06-02T05:49:20.729Z,8.17
2018-06-02T05:51:54.641Z,8.13
2018-06-02T05:54:29.342Z,7.70
2018-06-02T05:57:03.252Z,9.33
2018-06-02T05:59:37.187Z,7.33
2018-06-02T06:02:11.855Z,6.67
2018-06-02T06:04:45.802Z,6.37
2018-06-02T06:07:19.710Z,7.97
2018-06-02T06:09:53.652Z,8.23
2018-06-02T06:12:27.550Z,8.27
2018-06-02T06:15:02.249Z,9.43
2018-06-02T06:17:37.116Z,7.90
2018-06-02T06:20:11.055Z,6.63
2018-06-02T06:22:44.954Z,9.73
2018-06-02T06:25:18.583Z,10.77
2018-06-02T06:27:52.492Z,9.57
2018-06-02T06:30:27.400Z,6.80
2018-06-02T06:33:01.359Z,8.53
2018-06-02T06:35:35.467Z,6.20
2018-06-02T06:38:10.379Z,11.40
2018-06-02T06:40:45.288Z,6.07
2018-06-02T06:43:19.200Z,7.50
2018-06-02T06:45:53.167Z,5.90
2018-06-02T06:48:27.840Z,7.40
2018-06-02T06:51:02.776Z,6.70
2018-06-02T06:53:36.696Z,5.53
2018-06-02T06:56:11.408Z,9.23
2018-06-02T06:58:45.313Z,5.47
2018-06-02T07:01:20.225Z,8.50
2018-06-02T07:03:54.128Z,7.10
2018-06-02T07:06:28.072Z,5.57
2018-06-02T07:09:02.784Z,8.20
2018-06-02T07:11:37.680Z,5.43
2018-06-02T07:14:11.585Z,6.10
2018-06-02T07:16:45.571Z,6.87
2018-06-02T07:19:19.485Z,5.83
2018-06-02T07:21:53.428Z,6.23
2018-06-02T07:24:27.336Z,5.47
2018-06-02T07:27:04.149Z,4.67
2018-06-02T07:29:38.813Z,4.40
2018-06-02T07:32:13.735Z,5.07
2018-06-02T07:34:47.642Z,5.00
2018-06-02T07:37:21.588Z,5.40
2018-06-02T07:39:55.499Z,5.27
2018-06-02T07:42:29.453Z,5.53
2018-06-02T07:45:04.011Z,5.80
2018-06-02T07:47:38.935Z,7.53
2018-06-02T07:50:12.853Z,7.93
2018-06-02T07:52:46.809Z,8.47
2018-06-02T07:55:20.730Z,5.87
2018-06-02T07:57:54.697Z,5.90
2018-06-02T08:00:29.597Z,6.20
2018-06-02T08:03:03.539Z,7.47
2018-06-02T08:05:38.415Z,5.90
2018-06-02T08:08:12.361Z,5.30
2018-06-02T08:10:46.270Z,6.70
2018-06-02T08:13:20.676Z,6.37
2018-06-02T08:15:54.580Z,6.00
2018-06-02T08:18:29.500Z,5.77
2018-06-02T08:21:03.396Z,5.27
2018-06-02T08:23:37.338Z,7.40
2018-06-02T08:26:12.201Z,7.97
2018-06-02T08:28:46.171Z,6.90
2018-06-02T08:31:20.080Z,14.50
2018-06-02T08:33:54.992Z,7.23
2018-06-02T08:36:28.900Z,7.93
2018-06-02T08:39:02.879Z,6.67
2018-06-02T08:41:37.554Z,8.97
2018-06-02T08:44:11.508Z,7.87
2018-06-02T08:46:46.384Z,5.87
2018-06-02T08:49:21.329Z,9.50
2018-06-02T08:51:55.233Z,6.47
2018-06-02T08:54:29.255Z,5.43
2018-06-02T08:57:03.281Z,5.13
2018-06-02T08:59:37.211Z,6.37
2018-06-02T09:02:11.119Z,7.43
2018-06-02T09:04:45.064Z,6.43
2018-06-02T09:07:19.972Z,5.70
2018-06-02T09:09:53.931Z,5.90
2018-06-02T09:12:28.609Z,7.03
2018-06-02T09:15:02.567Z,6.87
2018-06-02T09:17:36.471Z,7.07
2018-06-02T09:20:11.181Z,8.60
2018-06-02T09:22:45.086Z,6.20
2018-06-02T09:25:19.067Z,7.67
2018-06-02T09:27:53.006Z,5.77
2018-06-02T09:30:27.119Z,6.73
2018-06-02T09:33:01.832Z,4.00
2018-06-02T09:35:35.735Z,5.73
2018-06-02T09:38:10.627Z,4.67
2018-06-02T09:40:44.533Z,6.37
2018-06-02T09:43:18.480Z,7.00
2018-06-02T09:45:52.384Z,5.43
2018-06-02T09:48:27.284Z,6.83
2018-06-02T09:51:01.191Z,5.17
2018-06-02T09:53:36.084Z,4.83
2018-06-02T09:56:09.988Z,6.47
2018-06-02T09:58:44.692Z,8.00
2018-06-02T10:01:18.598Z,5.83
2018-06-02T10:03:52.531Z,5.90
2018-06-02T10:06:26.438Z,7.17
2018-06-02T10:09:00.388Z,6.53
2018-06-02T10:11:34.331Z,7.47
2018-06-02T10:14:08.446Z,9.00
2018-06-02T10:16:44.104Z,5.47
2018-06-02T10:19:18.046Z,8.93
2018-06-02T10:21:59.664Z,6.07
2018-06-02T10:24:35.733Z,4.60
2018-06-02T10:27:09.667Z,6.13
2018-06-02T10:29:47.030Z,7.37
2018-06-02T10:32:21.040Z,11.63
2018-06-02T10:34:54.956Z,6.10
2018-06-02T10:37:28.902Z,6.67
2018-06-02T10:40:02.850Z,8.00
2018-06-02T10:42:38.952Z,7.00
2018-06-02T10:45:12.957Z,5.57
2018-06-02T10:47:47.678Z,6.73
2018-06-02T10:50:26.860Z,5.47
2018-06-02T10:53:00.821Z,5.97
2018-06-02T10:55:38.718Z,4.80
2018-06-02T10:58:12.772Z,7.67
2018-06-02T11:00:46.678Z,6.57
2018-06-02T11:03:30.187Z,6.30
2018-06-02T11:06:04.241Z,4.57
2018-06-02T11:08:48.350Z,7.70
2018-06-02T11:11:23.216Z,5.77
2018-06-02T11:13:57.124Z,5.80
2018-06-02T11:16:32.060Z,9.50
2018-06-02T11:19:05.655Z,6.27
2018-06-02T11:21:39.596Z,7.80
2018-06-02T11:24:15.252Z,8.83
2018-06-02T11:26:49.196Z,9.47
2018-06-02T11:29:23.165Z,5.80
2018-06-02T11:31:57.910Z,9.30
2018-06-02T11:34:31.827Z,6.20
2018-06-02T11:37:05.772Z,5.43
2018-06-02T11:39:39.683Z,5.90
2018-06-02T11:42:14.614Z,7.97
2018-06-02T11:44:48.520Z,5.40
2018-06-02T11:47:22.480Z,6.67
2018-06-02T11:49:57.457Z,6.47
2018-06-02T11:52:31.441Z,7.30
2018-06-02T11:55:05.399Z,8.47
2018-06-02T11:57:41.119Z,5.77
2018-06-02T12:00:15.024Z,6.13
2018-06-02T12:02:48.968Z,4.60
2018-06-02T12:05:22.885Z,4.30
2018-06-02T12:07:56.816Z,8.77
2018-06-02T12:10:31.492Z,6.73
2018-06-02T12:13:06.196Z,7.00
2018-06-02T12:15:41.053Z,5.63
2018-06-02T12:18:15.772Z,6.00
2018-06-02T12:20:50.462Z,7.30
2018-06-02T12:23:24.394Z,5.43
2018-06-02T12:25:59.252Z,6.83
2018-06-02T12:28:33.199Z,5.40
2018-06-02T12:31:07.102Z,4.30
2018-06-02T12:33:42.034Z,4.70
2018-06-02T12:36:16.925Z,5.83
2018-06-02T12:38:51.051Z,5.17
2018-06-02T12:41:24.967Z,5.23
2018-06-02T12:43:59.888Z,6.07
2018-06-02T12:46:34.563Z,5.03
2018-06-02T12:49:09.492Z,3.77
2018-06-02T12:51:44.655Z,5.05
2018-06-02T12:54:18.894Z,6.45
2018-06-02T12:56:53.088Z,5.05
2018-06-02T12:59:28.094Z,6.15
2018-06-02T13:02:02.293Z,8.32
2018-06-02T13:04:36.535Z,6.85
2018-06-02T13:07:11.211Z,3.17
2018-06-02T13:09:46.416Z,6.65
2018-06-02T13:12:21.283Z,6.20
2018-06-02T13:14:55.232Z,4.03
2018-06-02T13:17:29.430Z,7.75
2018-06-02T13:20:03.331Z,4.00
2018-06-02T13:22:37.528Z,5.75
2018-06-02T13:25:11.768Z,4.53
2018-06-02T13:27:51.402Z,4.22
2018-06-02T13:30:27.162Z,6.32
2018-06-02T13:33:09.926Z,4.60
2018-06-02T13:35:45.530Z,4.68
2018-06-02T13:38:19.761Z,4.97
2018-06-02T13:40:54.568Z,7.30
2018-06-02T13:43:28.808Z,5.55
2018-06-02T13:46:05.225Z,5.82
2018-06-02T13:48:40.944Z,9.43
2018-06-02T13:51:15.136Z,6.80
2018-06-02T13:53:51.097Z,4.07
2018-06-02T13:56:26.060Z,5.53
2018-06-02T13:59:00.283Z,8.77
2018-06-02T14:01:34.480Z,3.87
2018-06-02T14:04:08.732Z,3.95
2018-06-02T14:06:42.927Z,5.53
2018-06-02T14:09:18.130Z,4.97
2018-06-02T14:11:52.323Z,5.85
2018-06-02T14:14:28.312Z,7.18
2018-06-02T14:17:02.564Z,4.55
2018-06-02T14:19:36.800Z,7.78
2018-06-02T14:22:10.997Z,5.20
2018-06-02T14:24:45.228Z,5.12
2018-06-02T14:27:19.420Z,5.65
2018-06-02T14:29:54.616Z,6.03
2018-06-02T14:32:29.801Z,7.40
2018-06-02T14:35:03.718Z,5.00
2018-06-02T14:37:38.804Z,6.22
2018-06-02T14:40:13.040Z,7.07
2018-06-02T14:42:47.247Z,6.57
2018-06-02T14:45:21.489Z,4.40
2018-06-02T14:47:55.686Z,8.93
2018-06-02T14:50:29.916Z,5.30
2018-06-02T14:53:04.124Z,4.80
2018-06-02T14:55:38.364Z,5.10
2018-06-02T14:58:13.332Z,5.80
2018-06-02T15:00:48.559Z,4.30
2018-06-02T15:03:22.797Z,7.78
2018-06-02T15:05:58.009Z,4.43
2018-06-02T15:08:32.204Z,9.02
2018-06-02T15:11:07.220Z,6.12
2018-06-02T15:13:41.426Z,8.70
2018-06-02T15:16:16.702Z,9.38
2018-06-02T15:18:50.901Z,6.53
2018-06-02T15:21:25.140Z,7.80
2018-06-02T15:23:59.340Z,7.78
2018-06-02T15:26:33.585Z,4.70
2018-06-02T15:29:07.785Z,6.03
2018-06-02T15:31:42.995Z,5.82
2018-06-02T15:34:17.956Z,6.45
2018-06-02T15:36:52.206Z,5.70
2018-06-02T15:39:27.365Z,5.12
2018-06-02T15:42:02.557Z,5.53
2018-06-02T15:44:36.752Z,3.30
2018-06-02T15:47:10.999Z,4.57
2018-06-02T15:49:45.201Z,3.55
2018-06-02T15:52:19.443Z,4.53
2018-06-02T15:54:54.595Z,6.72
2018-06-02T15:57:29.599Z,5.00
2018-06-02T16:00:03.985Z,5.55
2018-06-02T16:02:37.894Z,5.30
2018-06-02T16:05:13.105Z,6.40
2018-06-02T16:07:49.139Z,8.45
2018-06-02T16:10:23.330Z,4.32
2018-06-02T16:12:57.571Z,8.38
2018-06-02T16:15:31.772Z,3.97
2018-06-02T16:18:05.687Z,4.90
2018-06-02T16:20:42.834Z,5.62
2018-06-02T16:23:17.069Z,5.65
2018-06-02T16:25:51.285Z,4.30
2018-06-02T16:28:25.529Z,5.32
2018-06-02T16:31:00.536Z,3.28
2018-06-02T16:33:34.776Z,5.72
2018-06-02T16:36:09.742Z,7.93
2018-06-02T16:38:44.745Z,6.28
2018-06-02T16:41:19.705Z,5.72
2018-06-02T16:43:54.708Z,6.65
2018-06-02T16:46:30.639Z,7.72
2018-06-02T16:49:04.535Z,5.47
2018-06-02T16:51:39.757Z,6.18
2018-06-02T16:54:13.988Z,7.87
2018-06-02T16:56:48.173Z,8.80
2018-06-02T16:59:22.409Z,7.62
2018-06-02T17:01:57.561Z,5.43
2018-06-02T17:04:31.801Z,7.10
2018-06-02T17:07:06.009Z,7.45
2018-06-02T17:09:41.025Z,8.18
2018-06-02T17:12:15.223Z,7.05
2018-06-02T17:14:49.463Z,6.10
2018-06-02T17:17:25.446Z,5.72
2018-06-02T17:20:00.771Z,6.28
2018-06-02T17:22:35.109Z,7.53
2018-06-02T17:25:09.356Z,5.70
2018-06-02T17:27:43.556Z,7.32
2018-06-02T17:30:18.777Z,6.72
2018-06-02T17:32:52.996Z,5.70
2018-06-02T17:35:28.216Z,5.93
2018-06-02T17:38:03.170Z,10.63
2018-06-02T17:40:37.260Z,7.62
2018-06-02T17:43:11.472Z,7.45
2018-06-02T17:45:46.651Z,7.03
2018-06-02T17:48:20.840Z,9.50
2018-06-02T17:50:54.809Z,9.48
2018-06-02T17:53:29.014Z,10.82
2018-06-02T17:56:03.247Z,8.13
2018-06-02T17:58:38.216Z,7.37
2018-06-02T18:01:12.443Z,6.28
2018-06-02T18:03:46.659Z,7.82
2018-06-02T18:06:20.890Z,10.50
2018-06-02T18:08:55.098Z,8.52
2018-06-02T18:11:29.340Z,10.57
2018-06-02T18:14:03.965Z,9.52
2018-06-02T18:16:38.960Z,6.37
2018-06-02T18:19:13.296Z,9.32
2018-06-02T18:21:48.514Z,9.73
2018-06-02T18:24:22.711Z,8.57
2018-06-02T18:26:56.945Z,8.80
2018-06-02T18:29:31.152Z,5.70
2018-06-02T18:32:05.395Z,7.53
2018-06-02T18:34:40.561Z,6.72
2018-06-02T18:37:14.805Z,6.60
2018-06-02T18:39:50.004Z,9.52
2018-06-02T18:42:25.967Z,5.87
2018-06-02T18:45:00.167Z,7.05
2018-06-02T18:47:35.161Z,7.85
2018-06-02T18:50:10.345Z,6.65
2018-06-02T18:52:44.585Z,4.53
2018-06-02T18:55:18.777Z,5.93
2018-06-02T18:57:53.025Z,6.90
2018-06-02T19:00:27.231Z,7.55
2018-06-02T19:03:01.469Z,6.35
2018-06-02T19:05:36.622Z,10.90
2018-06-02T19:08:10.871Z,12.02
2018-06-02T19:10:45.065Z,9.15
2018-06-02T19:13:19.849Z,10.48
2018-06-02T19:15:54.058Z,13.65
2018-06-02T19:18:29.261Z,10.45
2018-06-02T19:21:03.695Z,16.05
2018-06-02T19:23:37.938Z,12.98
2018-06-02T19:26:12.162Z,14.05
2018-06-02T19:28:47.409Z,16.02
2018-06-02T19:31:21.637Z,12.48
2018-06-02T19:33:56.644Z,12.32
2018-06-02T19:36:30.840Z,11.52
2018-06-02T19:39:05.575Z,12.77
2018-06-02T19:41:39.804Z,14.43
2018-06-02T19:44:15.012Z,13.18
2018-06-02T19:46:49.227Z,14.40
2018-06-02T19:49:23.488Z,13.38
2018-06-02T19:51:58.476Z,13.57
2018-06-02T19:54:32.744Z,15.52
2018-06-02T19:57:07.905Z,17.80
2018-06-02T19:59:42.164Z,17.73
2018-06-02T20:02:16.381Z,13.93
2018-06-02T20:04:50.644Z,14.95
2018-06-02T20:07:24.858Z,16.27
2018-06-02T20:09:59.157Z,11.60
2018-06-02T20:12:33.384Z,15.55
2018-06-02T20:15:07.620Z,12.73
2018-06-02T20:17:41.816Z,13.02
2018-06-02T20:20:17.062Z,16.08
2018-06-02T20:22:51.279Z,11.30
2018-06-02T20:25:26.490Z,16.62
2018-06-02T20:28:00.704Z,16.65
2018-06-02T20:30:34.957Z,18.33
2018-06-02T20:33:09.176Z,18.27
2018-06-02T20:35:44.415Z,18.40
2018-06-02T20:38:19.589Z,19.10
2018-06-02T20:40:54.600Z,23.77
2018-06-02T20:43:28.817Z,16.87
2018-06-02T20:46:04.052Z,17.87
2018-06-02T20:48:38.269Z,23.23
2018-06-02T20:51:12.525Z,13.60
2018-06-02T20:53:47.746Z,35.60
2018-06-02T20:56:22.429Z,16.20
2018-06-02T20:58:56.639Z,18.85
2018-06-02T21:01:30.893Z,20.15
2018-06-02T21:04:05.877Z,23.83
2018-06-02T21:06:40.137Z,15.68
2018-06-02T21:09:14.331Z,26.98
2018-06-02T21:11:48.573Z,23.92
2018-06-02T21:14:23.547Z,17.70
2018-06-02T21:16:58.785Z,22.23
2018-06-02T21:19:33.952Z,37.58
2018-06-02T21:22:08.212Z,48.15
2018-06-02T21:24:42.413Z,69.10
2018-06-02T21:27:16.679Z,74.35
2018-06-02T21:29:50.904Z,64.97
2018-06-02T21:32:25.153Z,73.45
2018-06-02T21:35:00.191Z,61.33
2018-06-02T21:37:41.207Z,71.80
2018-06-02T21:40:16.443Z,74.37
2018-06-02T21:42:50.650Z,72.57
2018-06-02T21:45:24.939Z,71.97
2018-06-02T21:47:59.915Z,67.28
2018-06-02T21:50:34.175Z,59.63
2018-06-02T21:53:08.397Z,58.85
2018-06-02T21:55:43.606Z,53.17
2018-06-02T21:58:18.472Z,53.80
2018-06-02T22:00:52.726Z,53.72
2018-06-02T22:03:26.267Z,53.33
2018-06-02T22:05:59.876Z,48.00
2018-06-02T22:08:33.454Z,45.60
2018-06-02T22:11:08.476Z,41.90
2018-06-02T22:13:42.043Z,43.92
2018-06-02T22:16:15.640Z,44.28
2018-06-02T22:18:49.849Z,41.45
2018-06-02T22:21:25.756Z,45.33
2018-06-02T22:23:59.963Z,40.12
2018-06-02T22:26:34.981Z,44.97
2018-06-02T22:29:09.183Z,40.05
2018-06-02T22:31:44.380Z,39.63
2018-06-02T22:34:18.616Z,42.33
2018-06-02T22:36:52.861Z,38.83
2018-06-02T22:39:28.050Z,42.38
2018-06-02T22:42:02.302Z,44.45
2018-06-02T22:44:36.519Z,42.15
2018-06-02T22:47:10.782Z,45.00
2018-06-02T22:49:44.999Z,44.67
2018-06-02T22:52:18.601Z,48.10
2018-06-02T22:54:53.440Z,39.00
2018-06-02T22:57:27.043Z,40.35
2018-06-02T23:00:00.585Z,37.15
2018-06-02T23:02:35.812Z,39.60
2018-06-02T23:05:09.356Z,40.33
2018-06-02T23:07:42.944Z,41.30
2018-06-02T23:10:17.165Z,43.47
2018-06-02T23:12:51.469Z,44.97
2018-06-02T23:15:26.456Z,46.85
2018-06-02T23:18:00.715Z,45.20
2018-06-02T23:20:35.712Z,46.85
2018-06-02T23:23:09.993Z,43.90
2018-06-02T23:25:44.211Z,49.50
2018-06-02T23:28:18.455Z,46.72
2018-06-02T23:30:53.627Z,44.30
2018-06-02T23:33:29.633Z,42.42
2018-06-02T23:36:03.859Z,41.63
2018-06-02T23:38:39.081Z,35.90
2018-06-02T23:41:13.297Z,44.70
2018-06-02T23:43:47.211Z,50.35
2018-06-02T23:46:22.411Z,51.95
2018-06-02T23:48:57.635Z,55.75
2018-06-02T23:51:32.609Z,53.22
2018-06-02T23:54:06.843Z,48.87
2018-06-02T23:56:41.036Z,51.92
2018-06-02T23:59:15.296Z,48.95
